Time,TemperatureF,DewpointF,PressureIn,WindDirection,WindDirectionDegrees,WindSpeedMPH,WindSpeedGustMPH,Humidity,HourlyPrecipIn,Conditions,Clouds,dailyrainin,SoftwareType,DateUTC
2013-04-12 00:01:00,71.0,32.0,29.70,SSE,158,1.0,2.0,24,0.00,,,0.00,,2013-04-12 07:01:00,
2013-04-12 00:11:00,71.0,32.0,29.70,SSE,158,1.0,2.0,24,0.00,,,0.00,,2013-04-12 07:11:00,
2013-04-12 00:21:00,70.0,32.0,29.70,SSE,158,2.0,3.0,24,0.00,,,0.00,,2013-04-12 07:21:00,
2013-04-12 00:31:00,71.0,30.0,29.69,SE,135,1.0,2.0,22,0.00,,,0.00,,2013-04-12 07:31:00,
2013-04-12 00:41:00,71.0,30.0,29.69,SE,135,1.0,2.0,22,0.00,,,0.00,,2013-04-12 07:41:00,
2013-04-12 00:52:00,71.0,32.0,29.69,SE,135,0.0,1.0,24,0.00,,,0.00,,2013-04-12 07:52:00,
2013-04-12 01:02:00,70.0,32.0,29.70,SE,135,1.0,2.0,24,0.00,,,0.00,,2013-04-12 08:02:00,
2013-04-12 01:11:00,70.0,32.0,29.70,SE,135,1.0,2.0,24,0.00,,,0.00,,2013-04-12 08:11:00,
2013-04-12 01:21:00,69.0,33.0,29.70,SE,135,1.0,3.0,26,0.00,,,0.00,,2013-04-12 08:21:00,
2013-04-12 01:31:00,69.0,34.0,29.70,SE,135,1.0,2.0,27,0.00,,,0.00,,2013-04-12 08:31:00,
2013-04-12 01:41:00,69.0,34.0,29.70,SE,135,1.0,2.0,27,0.00,,,0.00,,2013-04-12 08:41:00,
2013-04-12 01:52:00,68.0,33.0,29.69,SE,135,0.0,0.0,27,0.00,,,0.00,,2013-04-12 08:52:00,
2013-04-12 02:01:00,68.0,33.0,29.68,SE,135,0.0,0.0,27,0.00,,,0.00,,2013-04-12 09:01:00,
2013-04-12 02:11:00,68.0,33.0,29.68,SE,135,0.0,0.0,27,0.00,,,0.00,,2013-04-12 09:11:00,
2013-04-12 02:21:00,67.0,34.0,29.68,SE,135,0.0,0.0,29,0.00,,,0.00,,2013-04-12 09:21:00,
2013-04-12 02:32:00,66.0,34.0,29.68,SE,135,2.0,3.0,30,0.00,,,0.00,,2013-04-12 09:32:00,
2013-04-12 02:52:00,66.0,34.0,29.68,SE,135,0.0,0.0,30,0.00,,,0.00,,2013-04-12 09:52:00,
2013-04-12 03:02:00,65.0,34.0,29.67,SE,135,0.0,0.0,31,0.00,,,0.00,,2013-04-12 10:02:00,
2013-04-12 03:12:00,65.0,35.0,29.68,SE,135,0.0,0.0,33,0.00,,,0.00,,2013-04-12 10:12:00,
2013-04-12 03:22:00,65.0,35.0,29.68,SE,135,0.0,0.0,33,0.00,,,0.00,,2013-04-12 10:22:00,
2013-04-12 03:33:00,64.0,37.0,29.68,SE,135,0.0,0.0,37,0.00,,,0.00,,2013-04-12 10:33:00,
2013-04-12 03:52:00,64.0,37.0,29.67,SE,135,0.0,0.0,36,0.00,,,0.00,,2013-04-12 10:52:00,
2013-04-12 04:02:00,62.0,35.0,29.67,SE,135,0.0,0.0,36,0.00,,,0.00,,2013-04-12 11:02:00,
2013-04-12 04:11:00,62.0,35.0,29.67,SE,135,0.0,0.0,36,0.00,,,0.00,,2013-04-12 11:11:00,
2013-04-12 04:21:00,62.0,35.0,29.68,SE,135,0.0,0.0,37,0.00,,,0.00,,2013-04-12 11:21:00,
2013-04-12 04:32:00,62.0,36.0,29.67,SE,135,0.0,0.0,38,0.00,,,0.00,,2013-04-12 11:32:00,
2013-04-12 04:42:00,62.0,36.0,29.67,SE,135,0.0,0.0,38,0.00,,,0.00,,2013-04-12 11:42:00,
2013-04-12 04:52:00,62.0,37.0,29.68,SE,135,0.0,0.0,39,0.00,,,0.00,,2013-04-12 11:52:00,
2013-04-12 05:01:00,62.0,37.0,29.68,SE,135,0.0,0.0,39,0.00,,,0.00,,2013-04-12 12:01:00,
2013-04-12 05:21:00,62.0,37.0,29.68,SE,135,0.0,0.0,39,0.00,,,0.00,,2013-04-12 12:21:00,
2013-04-12 05:31:00,62.0,36.0,29.68,SE,135,0.0,0.0,38,0.00,,,0.00,,2013-04-12 12:31:00,
2013-04-12 05:42:00,62.0,36.0,29.68,SE,135,0.0,0.0,38,0.00,,,0.00,,2013-04-12 12:42:00,
2013-04-12 05:52:00,61.0,35.0,29.69,SE,135,0.0,0.0,38,0.00,,,0.00,,2013-04-12 12:52:00,
2013-04-12 06:02:00,61.0,35.0,29.69,SE,135,0.0,0.0,38,0.00,,,0.00,,2013-04-12 13:02:00,
2013-04-12 06:11:00,61.0,35.0,29.69,SE,135,0.0,0.0,38,0.00,,,0.00,,2013-04-12 13:11:00,
2013-04-12 06:21:00,59.0,33.0,29.70,SE,135,2.0,3.0,37,0.00,,,0.00,,2013-04-12 13:21:00,
2013-04-12 06:31:00,59.0,33.0,29.70,SE,135,0.0,0.0,37,0.00,,,0.00,,2013-04-12 13:31:00,
2013-04-12 06:42:00,59.0,33.0,29.70,SE,135,0.0,0.0,37,0.00,,,0.00,,2013-04-12 13:42:00,
2013-04-12 06:52:00,60.0,33.0,29.70,SE,135,0.0,0.0,36,0.00,,,0.00,,2013-04-12 13:52:00,
2013-04-12 07:02:00,61.0,35.0,29.71,SE,135,0.0,1.0,37,0.00,,,0.00,,2013-04-12 14:02:00,
2013-04-12 07:11:00,61.0,35.0,29.71,SE,135,0.0,1.0,37,0.00,,,0.00,,2013-04-12 14:11:00,
2013-04-12 07:21:00,62.0,35.0,29.71,SE,135,1.0,2.0,36,0.00,,,0.00,,2013-04-12 14:21:00,
2013-04-12 07:31:00,62.0,35.0,29.72,SE,135,1.0,2.0,36,0.00,,,0.00,,2013-04-12 14:31:00,
2013-04-12 07:41:00,62.0,35.0,29.72,SE,135,1.0,2.0,36,0.00,,,0.00,,2013-04-12 14:41:00,
2013-04-12 07:53:00,62.0,33.0,29.72,SE,135,1.0,2.0,33,0.00,,,0.00,,2013-04-12 14:53:00,
2013-04-12 08:01:00,64.0,32.0,29.72,SE,135,1.0,3.0,30,0.00,,,0.00,,2013-04-12 15:01:00,
2013-04-12 08:11:00,64.0,32.0,29.72,SE,135,1.0,3.0,30,0.00,,,0.00,,2013-04-12 15:11:00,
2013-04-12 08:22:00,66.0,33.0,29.72,SE,135,2.0,6.0,29,0.00,,,0.00,,2013-04-12 15:22:00,
2013-04-12 08:32:00,67.0,34.0,29.72,SE,135,1.0,3.0,29,0.00,,,0.00,,2013-04-12 15:32:00,
2013-04-12 08:42:00,67.0,34.0,29.72,SE,135,1.0,3.0,29,0.00,,,0.00,,2013-04-12 15:42:00,
2013-04-12 09:03:00,70.0,34.0,29.74,SE,135,1.0,3.0,27,0.00,,,0.00,,2013-04-12 16:03:00,
2013-04-12 09:12:00,70.0,34.0,29.74,SE,135,1.0,3.0,27,0.00,,,0.00,,2013-04-12 16:12:00,
2013-04-12 09:22:00,71.0,35.0,29.74,SE,135,1.0,2.0,27,0.00,,,0.00,,2013-04-12 16:22:00,
2013-04-12 09:32:00,73.0,37.0,29.75,SE,135,2.0,3.0,27,0.00,,,0.00,,2013-04-12 16:32:00,
2013-04-12 09:53:00,74.0,38.0,29.76,SE,135,1.0,2.0,27,0.00,,,0.00,,2013-04-12 16:53:00,
2013-04-12 10:02:00,76.0,37.0,29.76,SE,135,2.0,3.0,24,0.00,,,0.00,,2013-04-12 17:02:00,
2013-04-12 10:22:00,77.0,36.0,29.76,SE,135,2.0,5.0,23,0.00,,,0.00,,2013-04-12 17:22:00,
2013-04-12 10:32:00,78.0,35.0,29.77,ESE,113,3.0,5.0,21,0.00,,,0.00,,2013-04-12 17:32:00,
2013-04-12 11:02:00,78.0,34.0,29.77,ESE,113,0.0,0.0,20,0.00,,,0.00,,2013-04-12 18:02:00,
2013-04-12 11:12:00,78.0,34.0,29.77,ESE,113,0.0,0.0,20,0.00,,,0.00,,2013-04-12 18:12:00,
2013-04-12 12:31:00,84.0,39.0,29.76,WSW,248,5.0,7.0,20,0.00,,,0.00,,2013-04-12 19:31:00,
2013-04-12 12:52:00,84.0,37.0,29.76,WSW,248,3.0,6.0,19,0.00,,,0.00,,2013-04-12 19:52:00,
2013-04-12 13:01:00,84.0,36.0,29.76,SSW,203,5.0,8.0,18,0.00,,,0.00,,2013-04-12 20:01:00,
2013-04-12 13:21:00,84.0,34.0,29.75,SW,225,5.0,5.0,17,0.00,,,0.00,,2013-04-12 20:21:00,
2013-04-12 13:32:00,86.0,39.0,29.75,WSW,248,2.0,3.0,19,0.00,,,0.00,,2013-04-12 20:32:00,
2013-04-12 13:52:00,86.0,36.0,29.75,WSW,248,6.0,8.0,17,0.00,,,0.00,,2013-04-12 20:52:00,
2013-04-12 14:01:00,87.0,37.0,29.75,West,270,2.0,3.0,17,0.00,,,0.00,,2013-04-12 21:01:00,
2013-04-12 14:21:00,87.0,37.0,29.74,WSW,248,3.0,7.0,17,0.00,,,0.00,,2013-04-12 21:21:00,
2013-04-12 14:32:00,87.0,41.0,29.73,WSW,248,2.0,3.0,20,0.00,,,0.00,,2013-04-12 21:32:00,
2013-04-12 14:52:00,88.0,38.0,29.72,SW,225,6.0,7.0,17,0.00,,,0.00,,2013-04-12 21:52:00,
2013-04-12 15:02:00,88.0,36.0,29.72,SW,225,5.0,8.0,16,0.00,,,0.00,,2013-04-12 22:02:00,
2013-04-12 15:22:00,87.0,35.0,29.71,SSW,203,5.0,8.0,16,0.00,,,0.00,,2013-04-12 22:22:00,
2013-04-12 15:32:00,87.0,37.0,29.71,WSW,248,3.0,5.0,17,0.00,,,0.00,,2013-04-12 22:32:00,
2013-04-12 15:52:00,88.0,36.0,29.71,SSW,203,1.0,2.0,16,0.00,,,0.00,,2013-04-12 22:52:00,
2013-04-12 16:03:00,87.0,37.0,29.70,South,180,3.0,5.0,17,0.00,,,0.00,,2013-04-12 23:03:00,
2013-04-12 16:12:00,88.0,38.0,29.70,SSW,203,6.0,7.0,17,0.00,,,0.00,,2013-04-12 23:12:00,
2013-04-12 16:21:00,88.0,38.0,29.70,SSW,203,6.0,7.0,17,0.00,,,0.00,,2013-04-12 23:21:00,
2013-04-12 16:31:00,87.0,37.0,29.69,South,180,3.0,5.0,17,0.00,,,0.00,,2013-04-12 23:31:00,
2013-04-12 16:51:00,87.0,38.0,29.68,SSW,203,5.0,8.0,18,0.00,,,0.00,,2013-04-12 23:51:00,
2013-04-12 17:01:00,87.0,40.0,29.68,WSW,248,6.0,7.0,19,0.00,,,0.00,,2013-04-13 00:01:00,
2013-04-12 17:21:00,87.0,37.0,29.68,SW,225,6.0,7.0,17,0.00,,,0.00,,2013-04-13 00:21:00,
2013-04-12 17:32:00,87.0,41.0,29.68,SW,225,3.0,8.0,20,0.00,,,0.00,,2013-04-13 00:32:00,
2013-04-12 17:51:00,86.0,41.0,29.67,SW,225,5.0,8.0,21,0.00,,,0.00,,2013-04-13 00:51:00,
2013-04-12 18:01:00,85.0,41.0,29.67,WSW,248,5.0,7.0,21,0.00,,,0.00,,2013-04-13 01:01:00,
2013-04-12 18:21:00,85.0,41.0,29.68,WSW,248,1.0,2.0,21,0.00,,,0.00,,2013-04-13 01:21:00,
2013-04-12 18:31:00,84.0,42.0,29.68,WSW,248,2.0,3.0,23,0.00,,,0.00,,2013-04-13 01:31:00,
2013-04-12 18:51:00,83.0,44.0,29.68,WSW,248,1.0,3.0,25,0.00,,,0.00,,2013-04-13 01:51:00,
2013-04-12 19:01:00,82.0,44.0,29.68,WSW,248,2.0,3.0,26,0.00,,,0.00,,2013-04-13 02:01:00,
2013-04-12 19:22:00,81.0,44.0,29.69,WSW,248,1.0,2.0,27,0.00,,,0.00,,2013-04-13 02:22:00,
2013-04-12 19:51:00,79.0,42.0,29.70,WSW,248,2.0,3.0,27,0.00,,,0.00,,2013-04-13 02:51:00,
2013-04-12 20:01:00,78.0,43.0,29.71,WSW,248,1.0,2.0,29,0.00,,,0.00,,2013-04-13 03:01:00,
2013-04-12 20:22:00,77.0,42.0,29.71,WSW,248,0.0,0.0,29,0.00,,,0.00,,2013-04-13 03:22:00,
2013-04-12 20:32:00,76.0,42.0,29.71,WSW,248,0.0,1.0,30,0.00,,,0.00,,2013-04-13 03:32:00,
2013-04-12 20:42:00,76.0,42.0,29.71,WSW,248,0.0,1.0,30,0.00,,,0.00,,2013-04-13 03:42:00,
2013-04-12 20:52:00,76.0,43.0,29.72,WSW,248,0.0,0.0,31,0.00,,,0.00,,2013-04-13 03:52:00,
2013-04-12 21:02:00,75.0,44.0,29.72,WSW,248,0.0,0.0,33,0.00,,,0.00,,2013-04-13 04:02:00,
2013-04-12 21:12:00,75.0,44.0,29.72,WSW,248,0.0,0.0,33,0.00,,,0.00,,2013-04-13 04:12:00,
2013-04-12 21:22:00,74.0,43.0,29.74,WSW,248,0.0,0.0,33,0.00,,,0.00,,2013-04-13 04:22:00,
2013-04-12 21:32:00,74.0,44.0,29.74,WSW,248,0.0,0.0,34,0.00,,,0.00,,2013-04-13 04:32:00,
2013-04-12 21:42:00,74.0,44.0,29.74,WSW,248,0.0,0.0,34,0.00,,,0.00,,2013-04-13 04:42:00,
2013-04-12 21:53:00,73.0,43.0,29.75,WSW,248,0.0,0.0,34,0.00,,,0.00,,2013-04-13 04:53:00,
2013-04-12 22:02:00,72.0,43.0,29.75,WSW,248,1.0,2.0,35,0.00,,,0.00,,2013-04-13 05:02:00,
2013-04-12 22:11:00,72.0,43.0,29.75,WSW,248,1.0,2.0,35,0.00,,,0.00,,2013-04-13 05:11:00,
2013-04-12 22:22:00,72.0,44.0,29.75,WSW,248,0.0,0.0,37,0.00,,,0.00,,2013-04-13 05:22:00,
2013-04-12 22:31:00,71.0,44.0,29.75,WSW,248,0.0,0.0,38,0.00,,,0.00,,2013-04-13 05:31:00,
2013-04-12 22:42:00,71.0,44.0,29.75,WSW,248,0.0,0.0,38,0.00,,,0.00,,2013-04-13 05:42:00,
2013-04-12 22:52:00,71.0,45.0,29.75,WSW,248,0.0,0.0,39,0.00,,,0.00,,2013-04-13 05:52:00,
2013-04-12 23:01:00,70.0,45.0,29.75,WSW,248,0.0,0.0,40,0.00,,,0.00,,2013-04-13 06:01:00,
2013-04-12 23:11:00,70.0,45.0,29.75,WSW,248,0.0,0.0,40,0.00,,,0.00,,2013-04-13 06:11:00,
2013-04-12 23:21:00,70.0,45.0,29.75,WSW,248,0.0,0.0,41,0.00,,,0.00,,2013-04-13 06:21:00,
2013-04-12 23:32:00,69.0,45.0,29.75,WSW,248,0.0,0.0,42,0.00,,,0.00,,2013-04-13 06:32:00,
2013-04-12 23:42:00,69.0,45.0,29.75,WSW,248,0.0,0.0,42,0.00,,,0.00,,2013-04-13 06:42:00,
2013-04-12 23:52:00,68.0,44.0,29.77,WSW,248,0.0,2.0,42,0.00,,,0.00,,2013-04-13 06:52:00,